createdAt,value
2023-01-29T00:01:29.210Z,0.72
2023-01-29T00:03:51.651Z,0.58
2023-01-29T00:06:13.103Z,0.19
2023-01-29T00:08:37.892Z,0.06
2023-01-29T00:11:03.996Z,-0.04
2023-01-29T00:13:25.431Z,0.03
2023-01-29T00:15:57.649Z,-0.01
2023-01-29T00:18:19.079Z,0.00
2023-01-29T00:20:45.248Z,0.06
2023-01-29T00:23:07.057Z,-0.07
2023-01-29T00:25:28.576Z,-0.01
2023-01-29T00:27:50.055Z,-0.10
2023-01-29T00:30:13.106Z,-0.26
2023-01-29T00:32:35.158Z,-0.38
2023-01-29T00:34:58.885Z,-0.41
2023-01-29T00:37:20.378Z,-0.37
2023-01-29T00:39:50.025Z,-0.33
2023-01-29T00:42:33.239Z,-0.46
2023-01-29T00:45:01.582Z,-0.45
2023-01-29T00:47:44.217Z,-0.30
2023-01-29T00:50:09.892Z,-0.37
2023-01-29T00:52:48.677Z,-0.20
2023-01-29T00:55:12.555Z,-0.13
2023-01-29T00:57:43.203Z,-0.13
2023-01-29T01:00:07.639Z,-0.27
2023-01-29T01:02:48.226Z,-0.23
2023-01-29T01:05:14.242Z,-0.27
2023-01-29T01:07:35.968Z,-0.01
2023-01-29T01:10:33.429Z,0.13
2023-01-29T01:12:56.270Z,0.26
2023-01-29T01:15:18.446Z,0.37
2023-01-29T01:17:53.443Z,0.45
2023-01-29T01:20:15.842Z,0.53
2023-01-29T01:22:37.698Z,0.54
2023-01-29T01:24:59.255Z,0.60
2023-01-29T01:27:20.828Z,0.59
2023-01-29T01:29:42.273Z,0.39
2023-01-29T01:32:03.937Z,0.47
2023-01-29T01:34:27.148Z,0.51
2023-01-29T01:36:49.150Z,0.56
2023-01-29T01:39:10.798Z,0.40
2023-01-29T01:41:32.259Z,0.35
2023-01-29T01:44:00.135Z,0.42
2023-01-29T01:46:22.427Z,0.44
2023-01-29T01:48:47.246Z,0.45
2023-01-29T01:51:09.351Z,0.49
2023-01-29T01:53:44.987Z,0.42
2023-01-29T01:56:11.232Z,0.02
2023-01-29T01:58:55.301Z,0.04
2023-01-29T02:01:17.799Z,-0.03
2023-01-29T02:04:04.363Z,-0.05
2023-01-29T02:06:44.582Z,0.02
2023-01-29T02:09:33.547Z,0.05
2023-01-29T02:11:55.423Z,0.00
2023-01-29T02:14:16.847Z,0.00
2023-01-29T02:16:38.998Z,0.00
2023-01-29T02:19:00.592Z,-0.05
2023-01-29T02:21:50.201Z,-0.01
2023-01-29T02:24:38.053Z,-0.03
2023-01-29T02:27:12.419Z,-0.03
2023-01-29T02:30:07.884Z,-0.08
2023-01-29T02:32:59.533Z,-0.08
2023-01-29T02:35:34.624Z,-0.23
2023-01-29T02:38:09.660Z,-0.40
2023-01-29T02:40:56.228Z,-0.34
2023-01-29T02:43:51.977Z,-0.46
2023-01-29T02:46:45.603Z,-0.62
2023-01-29T02:49:16.284Z,-0.55
2023-01-29T02:51:45.208Z,-0.70
2023-01-29T02:54:16.684Z,-1.04
2023-01-29T02:56:48.331Z,-0.84
2023-01-29T02:59:20.300Z,-0.84
2023-01-29T03:02:00.238Z,-1.17
2023-01-29T03:04:30.068Z,-1.32
2023-01-29T03:06:57.274Z,-1.26
2023-01-29T03:09:45.516Z,-1.14
2023-01-29T03:12:28.508Z,-1.30
2023-01-29T03:15:10.131Z,-1.18
2023-01-29T03:17:40.716Z,-1.12
2023-01-29T03:20:07.445Z,-1.14
2023-01-29T03:22:30.370Z,-1.14
2023-01-29T03:25:16.731Z,-1.24
2023-01-29T03:28:04.588Z,-1.13
2023-01-29T03:30:47.282Z,-1.09
2023-01-29T03:33:12.230Z,-1.09
2023-01-29T03:35:43.554Z,-1.06
2023-01-29T03:38:11.265Z,-1.00
2023-01-29T03:40:53.362Z,-0.98
2023-01-29T03:43:33.581Z,-0.98
2023-01-29T03:46:02.621Z,-0.97
2023-01-29T03:48:55.962Z,-0.98
2023-01-29T03:52:02.642Z,-0.95
2023-01-29T03:54:46.627Z,-1.00
2023-01-29T03:57:20.332Z,-1.00
2023-01-29T03:59:53.414Z,-1.01
2023-01-29T04:02:58.919Z,-1.02
2023-01-29T04:05:23.327Z,-1.17
2023-01-29T04:07:45.497Z,-1.17
2023-01-29T04:10:11.544Z,-1.19
2023-01-29T04:12:44.358Z,-1.80
2023-01-29T04:15:10.872Z,-1.49
2023-01-29T04:17:47.550Z,-2.14
2023-01-29T04:20:11.348Z,-1.99
2023-01-29T04:22:38.790Z,-1.97
2023-01-29T04:25:08.561Z,-1.92
2023-01-29T04:27:36.526Z,-1.82
2023-01-29T04:30:23.540Z,-1.80
2023-01-29T04:33:03.110Z,-1.76
2023-01-29T04:36:00.161Z,-1.73
2023-01-29T04:38:33.541Z,-1.79
2023-01-29T04:41:04.126Z,-1.73
2023-01-29T04:43:36.048Z,-1.75
2023-01-29T04:46:05.320Z,-2.14
2023-01-29T04:48:42.619Z,-2.24
2023-01-29T04:51:28.139Z,-2.13
2023-01-29T04:54:05.585Z,-1.91
2023-01-29T04:56:36.285Z,-2.50
2023-01-29T04:59:09.759Z,-2.38
2023-01-29T05:01:33.408Z,-2.53
2023-01-29T05:03:55.877Z,-2.33
2023-01-29T05:06:18.883Z,-2.22
2023-01-29T05:08:41.598Z,-2.12
2023-01-29T05:11:03.050Z,-2.13
2023-01-29T05:13:26.802Z,-2.16
2023-01-29T05:15:54.733Z,-2.21
2023-01-29T05:18:16.581Z,-2.06
2023-01-29T05:20:41.432Z,-2.00
2023-01-29T05:23:03.323Z,-1.95
2023-01-29T05:25:28.259Z,-1.91
2023-01-29T05:28:10.450Z,-2.04
2023-01-29T05:30:37.388Z,-2.48
2023-01-29T05:32:58.995Z,-2.61
2023-01-29T05:35:20.501Z,-2.47
2023-01-29T05:37:42.042Z,-2.45
2023-01-29T05:40:03.925Z,-2.35
2023-01-29T05:42:26.383Z,-2.32
2023-01-29T05:44:47.988Z,-2.36
2023-01-29T05:47:09.630Z,-2.45
2023-01-29T05:49:31.036Z,-2.36
2023-01-29T05:51:52.529Z,-2.58
2023-01-29T05:54:14.198Z,-2.59
2023-01-29T05:56:35.679Z,-2.83
2023-01-29T05:58:57.649Z,-3.16
2023-01-29T06:01:21.668Z,-2.97
2023-01-29T06:03:43.515Z,-2.70
2023-01-29T06:06:05.084Z,-2.75
2023-01-29T06:08:26.533Z,-2.89
2023-01-29T06:10:47.955Z,-2.90
2023-01-29T06:13:09.407Z,-2.60
2023-01-29T06:15:30.829Z,-2.71
2023-01-29T06:17:56.760Z,-2.50
2023-01-29T06:20:18.514Z,-2.39
2023-01-29T06:22:40.103Z,-2.23
2023-01-29T06:25:01.568Z,-2.09
2023-01-29T06:27:23.028Z,-2.08
2023-01-29T06:29:44.456Z,-1.95
2023-01-29T06:32:06.084Z,-2.14
2023-01-29T06:34:27.547Z,-2.34
2023-01-29T06:36:49.012Z,-2.39
2023-01-29T06:39:10.590Z,-2.32
2023-01-29T06:41:32.066Z,-2.40
2023-01-29T06:43:53.528Z,-2.49
2023-01-29T06:46:15.153Z,-2.35
2023-01-29T06:48:36.753Z,-2.24
2023-01-29T06:51:05.188Z,-2.35
2023-01-29T06:53:26.613Z,-2.34
2023-01-29T06:55:52.213Z,-2.21
2023-01-29T06:58:13.832Z,-2.14
2023-01-29T07:00:36.031Z,-2.29
2023-01-29T07:02:57.494Z,-2.33
2023-01-29T07:05:19.066Z,-2.16
2023-01-29T07:07:40.558Z,-2.07
2023-01-29T07:10:01.996Z,-2.01
2023-01-29T07:12:23.479Z,-2.23
2023-01-29T07:14:44.972Z,-2.32
2023-01-29T07:17:06.479Z,-2.36
2023-01-29T07:19:27.958Z,-2.29
2023-01-29T07:21:49.599Z,-2.12
2023-01-29T07:24:11.072Z,-1.91
2023-01-29T07:26:32.533Z,-1.89
2023-01-29T07:28:53.959Z,-1.82
2023-01-29T07:31:15.620Z,-1.74
2023-01-29T07:33:37.190Z,-1.71
2023-01-29T07:35:58.801Z,-1.74
2023-01-29T07:38:20.622Z,-1.68
2023-01-29T07:40:42.031Z,-1.65
2023-01-29T07:43:05.772Z,-1.61
2023-01-29T07:45:28.495Z,-2.05
2023-01-29T07:47:55.095Z,-2.04
2023-01-29T07:50:16.893Z,-1.81
2023-01-29T07:52:38.476Z,-1.76
2023-01-29T07:55:00.005Z,-1.65
2023-01-29T07:57:21.540Z,-1.69
2023-01-29T07:59:43.168Z,-1.84
2023-01-29T08:02:04.747Z,-1.82
2023-01-29T08:04:26.232Z,-2.00
2023-01-29T08:06:47.761Z,-2.17
2023-01-29T08:09:10.497Z,-2.21
2023-01-29T08:11:31.950Z,-2.51
2023-01-29T08:13:54.438Z,-2.16
2023-01-29T08:16:16.060Z,-2.03
2023-01-29T08:18:38.257Z,-1.93
2023-01-29T08:21:01.245Z,-1.67
2023-01-29T08:23:22.754Z,-1.67
2023-01-29T08:25:44.725Z,-1.62
2023-01-29T08:28:06.224Z,-1.76
2023-01-29T08:30:32.060Z,-1.66
2023-01-29T08:32:53.564Z,-1.59
2023-01-29T08:35:15.021Z,-1.54
2023-01-29T08:37:36.623Z,-1.46
2023-01-29T08:39:58.072Z,-1.37
2023-01-29T08:42:19.560Z,-1.33
2023-01-29T08:44:40.973Z,-1.58
2023-01-29T08:47:02.408Z,-1.39
2023-01-29T08:49:23.921Z,-1.32
2023-01-29T08:51:45.479Z,-1.45
2023-01-29T08:54:06.979Z,-1.26
2023-01-29T08:56:28.450Z,-1.50
2023-01-29T08:58:49.880Z,-1.32
2023-01-29T09:01:13.652Z,-1.27
2023-01-29T09:03:35.152Z,-1.39
2023-01-29T09:05:56.613Z,-1.30
2023-01-29T09:08:18.141Z,-1.28
2023-01-29T09:10:39.600Z,-1.25
2023-01-29T09:13:01.112Z,-1.06
2023-01-29T09:15:22.870Z,-0.97
2023-01-29T09:17:44.411Z,-0.91
2023-01-29T09:20:06.517Z,-0.79
2023-01-29T09:22:28.643Z,-0.70
2023-01-29T09:24:50.111Z,-0.41
2023-01-29T09:27:11.777Z,-0.36
2023-01-29T09:29:35.805Z,-0.39
2023-01-29T09:31:57.480Z,-0.50
2023-01-29T09:34:18.971Z,-0.54
2023-01-29T09:36:40.375Z,-0.40
2023-01-29T09:39:01.857Z,-0.32
2023-01-29T09:41:39.166Z,-0.21
2023-01-29T09:44:04.803Z,-0.13
2023-01-29T09:46:47.915Z,-0.10
2023-01-29T09:49:16.545Z,0.07
2023-01-29T09:51:42.045Z,-0.16
2023-01-29T09:54:19.446Z,-0.05
2023-01-29T09:56:47.062Z,-0.04
2023-01-29T09:59:11.913Z,0.06
2023-01-29T10:01:40.805Z,-0.02
2023-01-29T10:04:24.283Z,0.06
2023-01-29T10:07:11.280Z,0.06
2023-01-29T10:10:11.864Z,0.02
2023-01-29T10:13:18.410Z,-0.06
2023-01-29T10:15:47.902Z,0.09
2023-01-29T10:18:34.357Z,0.25
2023-01-29T10:21:14.484Z,0.19
2023-01-29T10:23:46.526Z,0.25
2023-01-29T10:26:12.680Z,0.26
2023-01-29T10:28:46.431Z,0.30
2023-01-29T10:31:12.671Z,0.28
2023-01-29T10:33:49.196Z,0.32
2023-01-29T10:36:22.566Z,0.48
2023-01-29T10:38:46.691Z,0.54
2023-01-29T10:41:11.055Z,0.66
2023-01-29T10:43:57.578Z,0.54
2023-01-29T10:46:52.831Z,0.46
2023-01-29T10:49:14.164Z,0.25
2023-01-29T10:51:54.058Z,0.27
2023-01-29T10:54:41.310Z,0.45
2023-01-29T10:57:40.118Z,0.41
2023-01-29T11:00:26.422Z,0.73
2023-01-29T11:02:50.345Z,0.59
2023-01-29T11:05:36.272Z,0.62
2023-01-29T11:08:10.162Z,0.52
2023-01-29T11:10:35.898Z,0.71
2023-01-29T11:12:58.999Z,0.68
2023-01-29T11:15:28.349Z,0.46
2023-01-29T11:18:25.242Z,0.49
2023-01-29T11:20:59.245Z,0.33
2023-01-29T11:23:30.093Z,0.26
2023-01-29T11:25:56.734Z,0.37
2023-01-29T11:28:36.342Z,0.26
2023-01-29T11:30:57.955Z,0.41
2023-01-29T11:33:23.625Z,0.35
2023-01-29T11:35:45.439Z,0.42
2023-01-29T11:38:08.940Z,0.33
2023-01-29T11:40:39.379Z,0.24
2023-01-29T11:43:33.391Z,0.36
2023-01-29T11:45:58.455Z,0.35
2023-01-29T11:48:22.894Z,0.58
2023-01-29T11:50:51.784Z,0.64
2023-01-29T11:53:31.811Z,0.76
2023-01-29T11:55:55.876Z,0.59
2023-01-29T11:58:27.384Z,0.67
2023-01-29T12:00:51.933Z,0.95
2023-01-29T12:03:16.118Z,1.18
2023-01-29T12:05:40.344Z,0.99
2023-01-29T12:08:14.863Z,0.92
2023-01-29T12:10:38.160Z,0.93
2023-01-29T12:13:09.719Z,0.89
2023-01-29T12:15:31.138Z,0.97
2023-01-29T12:17:58.953Z,1.04
2023-01-29T12:20:28.649Z,1.10
2023-01-29T12:23:16.219Z,0.99
2023-01-29T12:25:49.313Z,0.94
2023-01-29T12:28:44.189Z,1.20
2023-01-29T12:31:43.160Z,0.85
2023-01-29T12:34:31.812Z,0.90
2023-01-29T12:37:11.324Z,1.09
2023-01-29T12:39:32.736Z,0.87
2023-01-29T12:42:05.011Z,0.69
2023-01-29T12:44:35.443Z,0.82
2023-01-29T12:47:01.005Z,0.82
2023-01-29T12:49:25.084Z,0.86
2023-01-29T12:52:07.425Z,0.87
2023-01-29T12:54:38.431Z,1.15
2023-01-29T12:57:04.177Z,0.96
2023-01-29T12:59:29.295Z,1.08
2023-01-29T13:01:58.108Z,1.30
2023-01-29T13:04:45.529Z,1.16
2023-01-29T13:07:23.737Z,1.06
2023-01-29T13:09:53.232Z,0.78
2023-01-29T13:12:17.556Z,0.63
2023-01-29T13:14:46.528Z,0.55
2023-01-29T13:17:14.696Z,0.51
2023-01-29T13:19:45.263Z,0.53
2023-01-29T13:22:18.301Z,0.66
2023-01-29T13:24:41.149Z,0.64
2023-01-29T13:27:03.772Z,0.74
2023-01-29T13:29:30.829Z,0.81
2023-01-29T13:31:55.558Z,1.06
2023-01-29T13:34:24.457Z,1.00
2023-01-29T13:36:49.794Z,0.93
2023-01-29T13:39:23.505Z,0.69
2023-01-29T13:41:45.113Z,0.71
2023-01-29T13:44:18.275Z,0.59
2023-01-29T13:46:41.826Z,0.45
2023-01-29T13:49:05.099Z,0.41
2023-01-29T13:51:36.311Z,0.51
2023-01-29T13:54:03.819Z,0.46
2023-01-29T13:57:02.755Z,0.59
2023-01-29T13:59:45.219Z,0.52
2023-01-29T14:02:24.385Z,0.59
2023-01-29T14:04:45.831Z,0.66
2023-01-29T14:07:45.484Z,0.66
2023-01-29T14:10:14.511Z,0.76
2023-01-29T14:12:37.799Z,0.71
2023-01-29T14:15:05.883Z,0.78
2023-01-29T14:17:28.690Z,0.76
2023-01-29T14:20:00.982Z,0.89
2023-01-29T14:22:28.669Z,0.78
2023-01-29T14:24:55.694Z,0.95
2023-01-29T14:27:23.025Z,0.77
2023-01-29T14:29:44.539Z,0.70
2023-01-29T14:32:05.927Z,0.77
2023-01-29T14:34:34.966Z,0.64
2023-01-29T14:37:02.313Z,0.71
2023-01-29T14:39:29.665Z,0.74
2023-01-29T14:41:52.450Z,0.74
2023-01-29T14:44:44.727Z,0.76
2023-01-29T14:47:06.222Z,0.79
2023-01-29T14:49:49.330Z,1.04
2023-01-29T14:52:12.581Z,0.91
2023-01-29T14:54:40.776Z,0.79
2023-01-29T14:57:08.587Z,0.70
2023-01-29T14:59:37.382Z,0.61
2023-01-29T15:02:05.094Z,0.75
2023-01-29T15:04:46.463Z,0.54
2023-01-29T15:07:11.043Z,0.57
2023-01-29T15:09:41.615Z,0.52
2023-01-29T15:12:13.655Z,0.58
2023-01-29T15:14:46.930Z,0.41
2023-01-29T15:17:22.075Z,0.49
2023-01-29T15:19:47.918Z,0.46
2023-01-29T15:22:21.353Z,0.48
2023-01-29T15:24:44.443Z,0.43
2023-01-29T15:27:09.688Z,0.39
2023-01-29T15:29:31.175Z,0.60
2023-01-29T15:31:53.462Z,0.58
2023-01-29T15:34:15.045Z,0.61
2023-01-29T15:36:37.075Z,0.59
2023-01-29T15:39:15.699Z,0.66
2023-01-29T15:41:37.719Z,0.78
2023-01-29T15:44:01.030Z,0.66
2023-01-29T15:46:28.275Z,0.58
2023-01-29T15:48:50.764Z,0.82
2023-01-29T15:51:18.224Z,0.61
2023-01-29T15:53:48.909Z,0.52
2023-01-29T15:56:12.740Z,0.53
2023-01-29T15:58:34.973Z,0.72
2023-01-29T16:00:59.043Z,0.71
2023-01-29T16:03:23.240Z,0.60
2023-01-29T16:05:44.916Z,0.63
2023-01-29T16:08:09.339Z,0.82
2023-01-29T16:10:32.628Z,1.04
2023-01-29T16:12:54.689Z,1.14
2023-01-29T16:15:23.659Z,1.25
2023-01-29T16:17:45.903Z,1.33
2023-01-29T16:20:31.776Z,1.47
2023-01-29T16:22:53.552Z,1.28
2023-01-29T16:25:15.621Z,1.36
2023-01-29T16:27:37.303Z,1.40
2023-01-29T16:29:59.289Z,1.40
2023-01-29T16:32:20.999Z,1.25
2023-01-29T16:34:45.598Z,1.31
2023-01-29T16:37:19.851Z,1.37
2023-01-29T16:39:46.064Z,1.37
2023-01-29T16:42:17.260Z,1.37
2023-01-29T16:44:49.339Z,1.41
2023-01-29T16:47:13.309Z,1.12
2023-01-29T16:49:34.689Z,0.83
2023-01-29T16:51:57.070Z,1.00
2023-01-29T16:54:23.563Z,0.72
2023-01-29T16:56:47.456Z,0.88
2023-01-29T16:59:18.728Z,0.87
2023-01-29T17:01:40.388Z,0.57
2023-01-29T17:04:19.349Z,0.55
2023-01-29T17:06:45.216Z,0.64
2023-01-29T17:09:07.142Z,0.73
2023-01-29T17:11:39.979Z,0.74
2023-01-29T17:14:01.875Z,0.55
2023-01-29T17:16:29.271Z,0.68
2023-01-29T17:18:51.307Z,0.77
2023-01-29T17:21:12.805Z,0.67
2023-01-29T17:23:36.474Z,0.78
2023-01-29T17:26:00.542Z,0.79
2023-01-29T17:28:24.738Z,0.66
2023-01-29T17:31:05.837Z,0.78
2023-01-29T17:33:28.307Z,0.80
2023-01-29T17:35:52.382Z,0.88
2023-01-29T17:38:25.608Z,0.96
2023-01-29T17:41:06.398Z,0.96
2023-01-29T17:43:28.507Z,0.63
2023-01-29T17:45:50.117Z,0.77
2023-01-29T17:48:19.615Z,0.89
2023-01-29T17:50:48.236Z,0.80
2023-01-29T17:53:09.851Z,0.92
2023-01-29T17:55:31.334Z,0.97
2023-01-29T17:57:52.795Z,0.99
2023-01-29T18:00:24.297Z,0.62
2023-01-29T18:02:45.891Z,0.55
2023-01-29T18:05:07.752Z,0.72
2023-01-29T18:07:29.180Z,0.42
2023-01-29T18:09:50.595Z,0.56
2023-01-29T18:12:12.059Z,0.51
2023-01-29T18:14:33.498Z,0.40
2023-01-29T18:16:57.228Z,0.39
2023-01-29T18:19:27.235Z,0.65
2023-01-29T18:21:49.902Z,0.60
2023-01-29T18:24:11.362Z,0.13
2023-01-29T18:26:32.835Z,0.09
2023-01-29T18:28:54.298Z,-0.02
2023-01-29T18:31:15.885Z,-0.25
2023-01-29T18:33:37.374Z,-0.29
2023-01-29T18:35:58.784Z,-0.14
2023-01-29T18:38:20.351Z,-0.32
2023-01-29T18:40:41.903Z,-0.32
2023-01-29T18:43:04.268Z,-0.44
2023-01-29T18:45:25.756Z,-0.28
2023-01-29T18:47:48.627Z,-0.48
2023-01-29T18:50:10.945Z,-0.55
2023-01-29T18:52:34.297Z,-0.67
2023-01-29T18:54:55.763Z,-0.63
2023-01-29T18:58:27.714Z,-0.48
2023-01-29T18:59:58.772Z,-0.37
2023-01-29T19:02:20.618Z,-0.22
2023-01-29T19:04:42.523Z,-0.41
2023-01-29T19:07:04.781Z,-0.51
2023-01-29T19:09:26.441Z,-0.65
2023-01-29T19:11:47.881Z,-0.64
2023-01-29T19:14:13.628Z,-0.63
2023-01-29T19:16:35.121Z,-0.67
2023-01-29T19:18:56.711Z,-0.86
2023-01-29T19:21:18.369Z,-0.81
2023-01-29T19:23:45.450Z,-0.88
2023-01-29T19:26:07.898Z,-0.80
2023-01-29T19:28:29.388Z,-0.85
2023-01-29T19:30:50.874Z,-0.88
2023-01-29T19:33:12.371Z,-0.76
2023-01-29T19:35:37.801Z,-0.71
2023-01-29T19:38:03.973Z,-0.69
2023-01-29T19:40:25.864Z,-0.63
2023-01-29T19:42:47.969Z,-0.54
2023-01-29T19:45:09.830Z,-0.69
2023-01-29T19:47:35.865Z,-0.86
2023-01-29T19:49:57.314Z,-0.90
2023-01-29T19:52:50.649Z,-1.04
2023-01-29T19:55:13.004Z,-0.97
2023-01-29T19:57:34.848Z,-0.92
2023-01-29T19:59:58.015Z,-0.95
2023-01-29T20:02:19.633Z,-0.85
2023-01-29T20:04:41.106Z,-0.90
2023-01-29T20:07:02.519Z,-0.74
2023-01-29T20:09:23.986Z,-0.49
2023-01-29T20:11:45.409Z,-0.59
2023-01-29T20:14:07.575Z,-0.73
2023-01-29T20:16:29.339Z,-0.80
2023-01-29T20:18:55.868Z,-0.93
2023-01-29T20:21:35.868Z,-0.85
2023-01-29T20:23:59.519Z,-0.99
2023-01-29T20:26:21.802Z,-0.74
2023-01-29T20:28:46.112Z,-0.70
2023-01-29T20:31:09.693Z,-0.81
2023-01-29T20:33:31.984Z,-0.80
2023-01-29T20:35:55.040Z,-0.76
2023-01-29T20:38:16.707Z,-1.03
2023-01-29T20:40:38.243Z,-0.99
2023-01-29T20:42:59.726Z,-1.08
2023-01-29T20:45:21.960Z,-1.07
2023-01-29T20:47:43.439Z,-1.12
2023-01-29T20:50:08.607Z,-1.12
2023-01-29T20:52:30.109Z,-1.06
2023-01-29T20:54:56.609Z,-1.01
2023-01-29T20:57:18.060Z,-1.01
2023-01-29T20:59:39.592Z,-0.86
2023-01-29T21:02:05.113Z,-0.71
2023-01-29T21:04:33.058Z,-0.55
2023-01-29T21:06:54.646Z,-0.51
2023-01-29T21:09:16.146Z,-0.54
2023-01-29T21:11:37.682Z,-0.69
2023-01-29T21:13:59.233Z,-0.58
2023-01-29T21:16:20.687Z,-0.65
2023-01-29T21:18:42.203Z,-0.63
2023-01-29T21:21:04.203Z,-0.80
2023-01-29T21:23:25.643Z,-0.62
2023-01-29T21:25:48.081Z,-0.69
2023-01-29T21:28:09.550Z,-0.79
2023-01-29T21:30:31.546Z,-0.91
2023-01-29T21:32:53.038Z,-0.91
2023-01-29T21:35:15.072Z,-0.92
2023-01-29T21:37:37.937Z,-0.80
2023-01-29T21:39:59.381Z,-0.89
2023-01-29T21:42:39.110Z,-1.00
2023-01-29T21:45:00.672Z,-1.09
2023-01-29T21:47:22.334Z,-1.13
2023-01-29T21:49:44.564Z,-1.04
2023-01-29T21:52:06.583Z,-0.92
2023-01-29T21:54:31.599Z,-0.92
2023-01-29T21:56:53.055Z,-0.81
2023-01-29T21:59:14.591Z,-0.82
2023-01-29T22:01:38.676Z,-0.72
2023-01-29T22:04:00.372Z,-0.67
2023-01-29T22:06:22.918Z,-0.69
2023-01-29T22:08:44.387Z,-0.68
2023-01-29T22:11:07.270Z,-0.67
2023-01-29T22:13:28.857Z,-0.70
2023-01-29T22:15:55.086Z,-0.59
2023-01-29T22:18:16.493Z,-0.51
2023-01-29T22:20:37.942Z,-0.59
2023-01-29T22:23:00.563Z,-0.60
2023-01-29T22:25:22.144Z,-0.47
2023-01-29T22:27:43.595Z,-0.48
2023-01-29T22:30:05.841Z,-0.43
2023-01-29T22:32:27.675Z,-0.50
2023-01-29T22:34:49.168Z,-0.57
2023-01-29T22:37:10.821Z,-0.50
2023-01-29T22:39:32.311Z,-0.44
2023-01-29T22:41:53.917Z,-0.30
2023-01-29T22:44:16.147Z,-0.24
2023-01-29T22:46:37.607Z,-0.28
2023-01-29T22:48:59.153Z,-0.28
2023-01-29T22:51:20.739Z,-0.20
2023-01-29T22:53:48.427Z,-0.17
2023-01-29T22:56:12.509Z,-0.21
2023-01-29T22:58:34.130Z,-0.21
2023-01-29T23:00:55.799Z,-0.20
2023-01-29T23:03:17.432Z,-0.38
2023-01-29T23:05:38.858Z,-0.36
2023-01-29T23:08:00.270Z,-0.24
2023-01-29T23:10:21.760Z,-0.29
2023-01-29T23:12:43.218Z,-0.17
2023-01-29T23:15:05.732Z,-0.30
2023-01-29T23:17:27.233Z,-0.15
2023-01-29T23:19:48.778Z,-0.23
2023-01-29T23:22:10.337Z,-0.19
2023-01-29T23:24:32.438Z,-0.34
2023-01-29T23:27:13.047Z,-0.27
2023-01-29T23:29:34.494Z,-0.24
2023-01-29T23:31:55.971Z,-0.36
2023-01-29T23:34:17.520Z,-0.14
2023-01-29T23:36:39.046Z,-0.14
2023-01-29T23:39:00.494Z,-0.02
2023-01-29T23:41:22.461Z,0.16
2023-01-29T23:43:44.256Z,0.12
2023-01-29T23:46:05.751Z,0.11
2023-01-29T23:48:28.088Z,0.09
2023-01-29T23:50:50.180Z,0.08
2023-01-29T23:53:11.717Z,0.10
2023-01-29T23:55:33.176Z,0.05
2023-01-29T23:57:54.702Z,0.01
